sensor_id;sensor_type;location;lat;lon;timestamp;P1;durP1;ratioP1;P2;durP2;ratioP2
19436;SDS011;9854;50.968;4.168;2023-11-21T00:00:54;42.65;;;22.33;;
19436;SDS011;9854;50.968;4.168;2023-11-21T00:03:20;48.58;;;26.88;;
19436;SDS011;9854;50.968;4.168;2023-11-21T00:05:48;68.72;;;31.52;;
19436;SDS011;9854;50.968;4.168;2023-11-21T00:08:14;62.50;;;30.65;;
19436;SDS011;9854;50.968;4.168;2023-11-21T00:10:40;65.57;;;33.20;;
19436;SDS011;9854;50.968;4.168;2023-11-21T00:13:08;67.93;;;32.33;;
19436;SDS011;9854;50.968;4.168;2023-11-21T00:15:37;64.60;;;33.78;;
19436;SDS011;9854;50.968;4.168;2023-11-21T00:18:05;68.57;;;34.60;;
19436;SDS011;9854;50.968;4.168;2023-11-21T00:20:31;72.38;;;34.42;;
19436;SDS011;9854;50.968;4.168;2023-11-21T00:22:57;73.68;;;35.03;;
19436;SDS011;9854;50.968;4.168;2023-11-21T00:25:27;77.63;;;36.35;;
19436;SDS011;9854;50.968;4.168;2023-11-21T00:27:52;68.10;;;33.00;;
19436;SDS011;9854;50.968;4.168;2023-11-21T00:30:19;76.40;;;35.65;;
19436;SDS011;9854;50.968;4.168;2023-11-21T00:32:46;79.00;;;35.50;;
19436;SDS011;9854;50.968;4.168;2023-11-21T00:35:11;65.88;;;34.75;;
19436;SDS011;9854;50.968;4.168;2023-11-21T00:37:37;68.50;;;34.85;;
19436;SDS011;9854;50.968;4.168;2023-11-21T00:40:04;64.63;;;32.97;;
19436;SDS011;9854;50.968;4.168;2023-11-21T00:42:33;67.40;;;34.00;;
19436;SDS011;9854;50.968;4.168;2023-11-21T00:44:59;63.97;;;32.22;;
19436;SDS011;9854;50.968;4.168;2023-11-21T00:47:25;69.30;;;36.05;;
19436;SDS011;9854;50.968;4.168;2023-11-21T00:49:50;59.95;;;32.25;;
19436;SDS011;9854;50.968;4.168;2023-11-21T00:52:16;61.50;;;31.95;;
19436;SDS011;9854;50.968;4.168;2023-11-21T00:54:41;51.17;;;29.98;;
19436;SDS011;9854;50.968;4.168;2023-11-21T00:57:09;58.97;;;32.57;;
19436;SDS011;9854;50.968;4.168;2023-11-21T00:59:36;58.00;;;30.73;;
19436;SDS011;9854;50.968;4.168;2023-11-21T01:02:02;55.55;;;30.45;;
19436;SDS011;9854;50.968;4.168;2023-11-21T01:04:30;55.70;;;30.80;;
19436;SDS011;9854;50.968;4.168;2023-11-21T01:06:57;47.65;;;27.77;;
19436;SDS011;9854;50.968;4.168;2023-11-21T01:09:25;58.35;;;29.63;;
19436;SDS011;9854;50.968;4.168;2023-11-21T01:11:51;55.72;;;29.88;;
19436;SDS011;9854;50.968;4.168;2023-11-21T01:14:17;52.50;;;28.75;;
19436;SDS011;9854;50.968;4.168;2023-11-21T01:16:44;53.45;;;28.88;;
19436;SDS011;9854;50.968;4.168;2023-11-21T01:19:10;53.70;;;28.75;;
19436;SDS011;9854;50.968;4.168;2023-11-21T01:21:36;56.38;;;29.95;;
19436;SDS011;9854;50.968;4.168;2023-11-21T01:24:02;52.15;;;28.67;;
19436;SDS011;9854;50.968;4.168;2023-11-21T01:26:28;67.88;;;29.90;;
19436;SDS011;9854;50.968;4.168;2023-11-21T01:29:01;61.42;;;30.50;;
19436;SDS011;9854;50.968;4.168;2023-11-21T01:31:26;61.58;;;29.77;;
19436;SDS011;9854;50.968;4.168;2023-11-21T01:33:54;47.63;;;27.17;;
19436;SDS011;9854;50.968;4.168;2023-11-21T01:36:20;54.80;;;29.65;;
19436;SDS011;9854;50.968;4.168;2023-11-21T01:38:48;53.10;;;30.08;;
19436;SDS011;9854;50.968;4.168;2023-11-21T01:41:14;47.83;;;27.95;;
19436;SDS011;9854;50.968;4.168;2023-11-21T01:43:40;52.10;;;29.92;;
19436;SDS011;9854;50.968;4.168;2023-11-21T01:46:08;54.92;;;28.60;;
19436;SDS011;9854;50.968;4.168;2023-11-21T01:48:35;53.25;;;26.55;;
19436;SDS011;9854;50.968;4.168;2023-11-21T01:51:01;54.00;;;28.25;;
19436;SDS011;9854;50.968;4.168;2023-11-21T01:53:27;43.63;;;28.05;;
19436;SDS011;9854;50.968;4.168;2023-11-21T01:55:53;55.75;;;29.00;;
19436;SDS011;9854;50.968;4.168;2023-11-21T01:58:21;60.13;;;29.83;;
19436;SDS011;9854;50.968;4.168;2023-11-21T02:00:47;53.13;;;28.88;;
19436;SDS011;9854;50.968;4.168;2023-11-21T02:03:15;50.38;;;28.85;;
19436;SDS011;9854;50.968;4.168;2023-11-21T02:05:46;47.83;;;26.75;;
19436;SDS011;9854;50.968;4.168;2023-11-21T02:08:12;48.13;;;26.67;;
19436;SDS011;9854;50.968;4.168;2023-11-21T02:10:40;48.90;;;27.70;;
19436;SDS011;9854;50.968;4.168;2023-11-21T02:13:06;49.42;;;27.52;;
19436;SDS011;9854;50.968;4.168;2023-11-21T02:15:31;49.00;;;27.08;;
19436;SDS011;9854;50.968;4.168;2023-11-21T02:17:59;49.35;;;28.38;;
19436;SDS011;9854;50.968;4.168;2023-11-21T02:20:25;49.58;;;26.83;;
19436;SDS011;9854;50.968;4.168;2023-11-21T02:22:54;61.92;;;28.83;;
19436;SDS011;9854;50.968;4.168;2023-11-21T02:25:23;59.35;;;29.40;;
19436;SDS011;9854;50.968;4.168;2023-11-21T02:27:53;47.85;;;26.98;;
19436;SDS011;9854;50.968;4.168;2023-11-21T02:30:20;48.55;;;27.73;;
19436;SDS011;9854;50.968;4.168;2023-11-21T02:32:50;56.97;;;28.35;;
19436;SDS011;9854;50.968;4.168;2023-11-21T02:35:20;59.03;;;27.98;;
19436;SDS011;9854;50.968;4.168;2023-11-21T02:37:48;55.33;;;29.17;;
19436;SDS011;9854;50.968;4.168;2023-11-21T02:40:15;55.67;;;28.92;;
19436;SDS011;9854;50.968;4.168;2023-11-21T02:42:45;48.45;;;28.65;;
19436;SDS011;9854;50.968;4.168;2023-11-21T02:45:16;47.17;;;28.58;;
19436;SDS011;9854;50.968;4.168;2023-11-21T02:47:42;49.22;;;27.88;;
19436;SDS011;9854;50.968;4.168;2023-11-21T02:50:09;46.85;;;26.17;;
19436;SDS011;9854;50.968;4.168;2023-11-21T02:52:35;42.80;;;26.92;;
19436;SDS011;9854;50.968;4.168;2023-11-21T02:55:01;41.42;;;26.00;;
19436;SDS011;9854;50.968;4.168;2023-11-21T02:57:30;43.45;;;25.08;;
19436;SDS011;9854;50.968;4.168;2023-11-21T02:59:55;43.13;;;27.08;;
19436;SDS011;9854;50.968;4.168;2023-11-21T03:02:21;43.67;;;26.48;;
19436;SDS011;9854;50.968;4.168;2023-11-21T03:04:47;46.65;;;26.38;;
19436;SDS011;9854;50.968;4.168;2023-11-21T03:07:14;46.95;;;25.33;;
19436;SDS011;9854;50.968;4.168;2023-11-21T03:09:40;40.67;;;24.80;;
19436;SDS011;9854;50.968;4.168;2023-11-21T03:12:06;45.33;;;25.52;;
19436;SDS011;9854;50.968;4.168;2023-11-21T03:14:31;40.35;;;25.15;;
19436;SDS011;9854;50.968;4.168;2023-11-21T03:16:57;39.78;;;25.15;;
19436;SDS011;9854;50.968;4.168;2023-11-21T03:19:23;36.22;;;24.27;;
19436;SDS011;9854;50.968;4.168;2023-11-21T03:21:48;45.40;;;25.70;;
19436;SDS011;9854;50.968;4.168;2023-11-21T03:24:14;40.22;;;24.85;;
19436;SDS011;9854;50.968;4.168;2023-11-21T03:26:44;44.90;;;26.05;;
19436;SDS011;9854;50.968;4.168;2023-11-21T03:29:10;42.83;;;25.17;;
19436;SDS011;9854;50.968;4.168;2023-11-21T03:31:38;43.90;;;25.67;;
19436;SDS011;9854;50.968;4.168;2023-11-21T03:34:04;45.28;;;26.67;;
19436;SDS011;9854;50.968;4.168;2023-11-21T03:36:32;42.58;;;24.65;;
19436;SDS011;9854;50.968;4.168;2023-11-21T03:38:57;44.15;;;25.20;;
19436;SDS011;9854;50.968;4.168;2023-11-21T03:41:25;35.25;;;25.42;;
19436;SDS011;9854;50.968;4.168;2023-11-21T03:43:51;46.03;;;25.58;;
19436;SDS011;9854;50.968;4.168;2023-11-21T03:46:16;46.13;;;24.85;;
19436;SDS011;9854;50.968;4.168;2023-11-21T03:48:44;39.92;;;26.13;;
19436;SDS011;9854;50.968;4.168;2023-11-21T03:51:12;37.13;;;24.95;;
19436;SDS011;9854;50.968;4.168;2023-11-21T03:53:37;43.30;;;24.27;;
19436;SDS011;9854;50.968;4.168;2023-11-21T03:56:03;42.42;;;25.67;;
19436;SDS011;9854;50.968;4.168;2023-11-21T03:58:29;45.63;;;25.35;;
19436;SDS011;9854;50.968;4.168;2023-11-21T04:00:55;37.08;;;23.85;;
19436;SDS011;9854;50.968;4.168;2023-11-21T04:03:21;41.67;;;25.30;;
19436;SDS011;9854;50.968;4.168;2023-11-21T04:05:48;43.53;;;25.10;;
19436;SDS011;9854;50.968;4.168;2023-11-21T04:08:14;48.30;;;25.58;;
19436;SDS011;9854;50.968;4.168;2023-11-21T04:10:40;45.92;;;26.30;;
19436;SDS011;9854;50.968;4.168;2023-11-21T04:13:07;39.20;;;25.23;;
19436;SDS011;9854;50.968;4.168;2023-11-21T04:15:32;39.65;;;24.80;;
19436;SDS011;9854;50.968;4.168;2023-11-21T04:17:58;40.45;;;25.92;;
19436;SDS011;9854;50.968;4.168;2023-11-21T04:20:26;40.10;;;24.90;;
19436;SDS011;9854;50.968;4.168;2023-11-21T04:22:52;34.78;;;24.27;;
19436;SDS011;9854;50.968;4.168;2023-11-21T04:25:18;45.80;;;25.52;;
19436;SDS011;9854;50.968;4.168;2023-11-21T04:27:44;40.38;;;24.20;;
19436;SDS011;9854;50.968;4.168;2023-11-21T04:30:11;40.33;;;25.10;;
19436;SDS011;9854;50.968;4.168;2023-11-21T04:32:37;40.47;;;25.02;;
19436;SDS011;9854;50.968;4.168;2023-11-21T04:35:04;44.55;;;25.45;;
19436;SDS011;9854;50.968;4.168;2023-11-21T04:37:30;38.90;;;25.23;;
19436;SDS011;9854;50.968;4.168;2023-11-21T04:39:56;39.05;;;24.88;;
19436;SDS011;9854;50.968;4.168;2023-11-21T04:42:21;41.30;;;26.35;;
19436;SDS011;9854;50.968;4.168;2023-11-21T04:44:48;46.90;;;27.52;;
19436;SDS011;9854;50.968;4.168;2023-11-21T04:47:13;39.05;;;25.92;;
19436;SDS011;9854;50.968;4.168;2023-11-21T04:49:45;49.95;;;26.75;;
19436;SDS011;9854;50.968;4.168;2023-11-21T04:52:14;46.47;;;27.10;;
19436;SDS011;9854;50.968;4.168;2023-11-21T04:54:40;54.30;;;27.65;;
19436;SDS011;9854;50.968;4.168;2023-11-21T04:57:08;49.67;;;26.25;;
19436;SDS011;9854;50.968;4.168;2023-11-21T04:59:36;53.28;;;28.58;;
19436;SDS011;9854;50.968;4.168;2023-11-21T05:02:04;50.70;;;28.48;;
19436;SDS011;9854;50.968;4.168;2023-11-21T05:04:30;45.63;;;27.75;;
19436;SDS011;9854;50.968;4.168;2023-11-21T05:06:55;48.40;;;27.73;;
19436;SDS011;9854;50.968;4.168;2023-11-21T05:09:21;41.75;;;26.65;;
19436;SDS011;9854;50.968;4.168;2023-11-21T05:11:47;42.70;;;26.88;;
19436;SDS011;9854;50.968;4.168;2023-11-21T05:14:13;52.42;;;28.90;;
19436;SDS011;9854;50.968;4.168;2023-11-21T05:16:40;53.50;;;28.00;;
19436;SDS011;9854;50.968;4.168;2023-11-21T05:19:07;41.65;;;27.10;;
19436;SDS011;9854;50.968;4.168;2023-11-21T05:21:34;40.38;;;26.13;;
19436;SDS011;9854;50.968;4.168;2023-11-21T05:24:01;43.88;;;25.27;;
19436;SDS011;9854;50.968;4.168;2023-11-21T05:26:27;46.90;;;25.50;;
19436;SDS011;9854;50.968;4.168;2023-11-21T05:28:52;41.33;;;25.02;;
19436;SDS011;9854;50.968;4.168;2023-11-21T05:31:18;41.13;;;25.13;;
19436;SDS011;9854;50.968;4.168;2023-11-21T05:33:44;52.25;;;26.45;;
19436;SDS011;9854;50.968;4.168;2023-11-21T05:36:12;39.03;;;25.42;;
19436;SDS011;9854;50.968;4.168;2023-11-21T05:38:38;38.28;;;24.40;;
19436;SDS011;9854;50.968;4.168;2023-11-21T05:41:09;47.97;;;26.60;;
19436;SDS011;9854;50.968;4.168;2023-11-21T05:43:38;43.55;;;27.10;;
19436;SDS011;9854;50.968;4.168;2023-11-21T05:46:04;49.65;;;26.45;;
19436;SDS011;9854;50.968;4.168;2023-11-21T05:48:36;40.85;;;24.60;;
19436;SDS011;9854;50.968;4.168;2023-11-21T05:51:05;42.03;;;25.38;;
19436;SDS011;9854;50.968;4.168;2023-11-21T05:53:31;42.60;;;25.70;;
19436;SDS011;9854;50.968;4.168;2023-11-21T05:55:59;40.03;;;24.90;;
19436;SDS011;9854;50.968;4.168;2023-11-21T05:58:25;37.58;;;25.27;;
19436;SDS011;9854;50.968;4.168;2023-11-21T06:00:51;40.13;;;24.67;;
19436;SDS011;9854;50.968;4.168;2023-11-21T06:03:16;39.53;;;25.55;;
19436;SDS011;9854;50.968;4.168;2023-11-21T06:05:42;44.37;;;28.47;;
19436;SDS011;9854;50.968;4.168;2023-11-21T06:08:08;46.38;;;26.65;;
19436;SDS011;9854;50.968;4.168;2023-11-21T06:10:34;49.88;;;27.65;;
19436;SDS011;9854;50.968;4.168;2023-11-21T06:12:59;43.75;;;25.50;;
19436;SDS011;9854;50.968;4.168;2023-11-21T06:15:29;46.72;;;28.67;;
19436;SDS011;9854;50.968;4.168;2023-11-21T06:17:54;51.95;;;27.65;;
19436;SDS011;9854;50.968;4.168;2023-11-21T06:20:21;52.70;;;27.15;;
19436;SDS011;9854;50.968;4.168;2023-11-21T06:22:48;40.75;;;25.25;;
19436;SDS011;9854;50.968;4.168;2023-11-21T06:25:15;43.63;;;25.65;;
19436;SDS011;9854;50.968;4.168;2023-11-21T06:27:47;45.40;;;26.33;;
19436;SDS011;9854;50.968;4.168;2023-11-21T06:30:13;44.97;;;25.02;;
19436;SDS011;9854;50.968;4.168;2023-11-21T06:32:43;42.47;;;26.63;;
19436;SDS011;9854;50.968;4.168;2023-11-21T06:35:11;46.80;;;26.73;;
19436;SDS011;9854;50.968;4.168;2023-11-21T06:37:37;50.65;;;27.88;;
19436;SDS011;9854;50.968;4.168;2023-11-21T06:40:05;43.65;;;25.77;;
19436;SDS011;9854;50.968;4.168;2023-11-21T06:42:31;42.03;;;25.60;;
19436;SDS011;9854;50.968;4.168;2023-11-21T06:44:58;43.45;;;25.27;;
19436;SDS011;9854;50.968;4.168;2023-11-21T06:47:24;42.75;;;25.88;;
19436;SDS011;9854;50.968;4.168;2023-11-21T06:49:50;40.35;;;25.83;;
19436;SDS011;9854;50.968;4.168;2023-11-21T06:52:20;40.28;;;24.27;;
19436;SDS011;9854;50.968;4.168;2023-11-21T06:54:47;35.75;;;24.75;;
19436;SDS011;9854;50.968;4.168;2023-11-21T06:57:14;50.08;;;26.27;;
19436;SDS011;9854;50.968;4.168;2023-11-21T06:59:40;46.10;;;25.05;;
19436;SDS011;9854;50.968;4.168;2023-11-21T07:02:06;44.45;;;26.33;;
19436;SDS011;9854;50.968;4.168;2023-11-21T07:04:34;38.88;;;25.40;;
19436;SDS011;9854;50.968;4.168;2023-11-21T07:07:01;40.45;;;24.75;;
19436;SDS011;9854;50.968;4.168;2023-11-21T07:09:28;40.42;;;24.45;;
19436;SDS011;9854;50.968;4.168;2023-11-21T07:11:54;36.90;;;24.35;;
19436;SDS011;9854;50.968;4.168;2023-11-21T07:14:22;43.88;;;24.25;;
19436;SDS011;9854;50.968;4.168;2023-11-21T07:16:48;43.00;;;24.95;;
19436;SDS011;9854;50.968;4.168;2023-11-21T07:19:17;42.58;;;24.55;;
19436;SDS011;9854;50.968;4.168;2023-11-21T07:21:43;47.10;;;25.60;;
19436;SDS011;9854;50.968;4.168;2023-11-21T07:24:08;42.60;;;25.48;;
19436;SDS011;9854;50.968;4.168;2023-11-21T07:26:36;41.60;;;24.35;;
19436;SDS011;9854;50.968;4.168;2023-11-21T07:29:04;41.08;;;25.15;;
19436;SDS011;9854;50.968;4.168;2023-11-21T07:31:31;45.58;;;25.38;;
19436;SDS011;9854;50.968;4.168;2023-11-21T07:34:03;43.13;;;24.30;;
19436;SDS011;9854;50.968;4.168;2023-11-21T07:36:31;39.85;;;23.92;;
19436;SDS011;9854;50.968;4.168;2023-11-21T07:38:57;43.78;;;24.60;;
19436;SDS011;9854;50.968;4.168;2023-11-21T07:41:22;44.97;;;24.98;;
19436;SDS011;9854;50.968;4.168;2023-11-21T07:43:48;43.55;;;24.33;;
19436;SDS011;9854;50.968;4.168;2023-11-21T07:46:13;41.80;;;24.30;;
19436;SDS011;9854;50.968;4.168;2023-11-21T07:48:43;36.15;;;24.08;;
19436;SDS011;9854;50.968;4.168;2023-11-21T07:51:11;43.60;;;25.38;;
19436;SDS011;9854;50.968;4.168;2023-11-21T07:53:40;47.15;;;26.08;;
19436;SDS011;9854;50.968;4.168;2023-11-21T07:56:06;41.63;;;25.33;;
19436;SDS011;9854;50.968;4.168;2023-11-21T07:58:33;38.40;;;24.65;;
19436;SDS011;9854;50.968;4.168;2023-11-21T08:01:00;42.17;;;25.20;;
19436;SDS011;9854;50.968;4.168;2023-11-21T08:03:29;47.33;;;26.05;;
19436;SDS011;9854;50.968;4.168;2023-11-21T08:06:00;41.63;;;26.17;;
19436;SDS011;9854;50.968;4.168;2023-11-21T08:08:28;46.42;;;26.20;;
19436;SDS011;9854;50.968;4.168;2023-11-21T08:10:56;38.75;;;24.40;;
19436;SDS011;9854;50.968;4.168;2023-11-21T08:13:26;42.17;;;25.02;;
19436;SDS011;9854;50.968;4.168;2023-11-21T08:15:56;43.83;;;25.92;;
19436;SDS011;9854;50.968;4.168;2023-11-21T08:18:32;48.38;;;27.38;;
19436;SDS011;9854;50.968;4.168;2023-11-21T08:20:59;51.83;;;25.63;;
19436;SDS011;9854;50.968;4.168;2023-11-21T08:23:25;45.22;;;26.55;;
19436;SDS011;9854;50.968;4.168;2023-11-21T08:25:58;50.05;;;27.10;;
19436;SDS011;9854;50.968;4.168;2023-11-21T08:28:28;49.90;;;27.75;;
19436;SDS011;9854;50.968;4.168;2023-11-21T08:30:53;49.97;;;28.58;;
19436;SDS011;9854;50.968;4.168;2023-11-21T08:33:19;59.05;;;28.88;;
19436;SDS011;9854;50.968;4.168;2023-11-21T08:35:45;58.45;;;29.40;;
19436;SDS011;9854;50.968;4.168;2023-11-21T08:38:11;55.83;;;30.17;;
19436;SDS011;9854;50.968;4.168;2023-11-21T08:40:37;58.42;;;31.08;;
19436;SDS011;9854;50.968;4.168;2023-11-21T08:43:05;57.83;;;30.35;;
19436;SDS011;9854;50.968;4.168;2023-11-21T08:45:32;50.53;;;28.90;;
19436;SDS011;9854;50.968;4.168;2023-11-21T08:47:59;57.70;;;30.52;;
19436;SDS011;9854;50.968;4.168;2023-11-21T08:50:28;65.45;;;31.50;;
19436;SDS011;9854;50.968;4.168;2023-11-21T08:52:54;62.63;;;31.00;;
19436;SDS011;9854;50.968;4.168;2023-11-21T08:55:20;61.38;;;30.73;;
19436;SDS011;9854;50.968;4.168;2023-11-21T08:57:48;58.63;;;31.85;;
19436;SDS011;9854;50.968;4.168;2023-11-21T09:00:14;79.22;;;33.78;;
19436;SDS011;9854;50.968;4.168;2023-11-21T09:02:45;69.30;;;31.13;;
19436;SDS011;9854;50.968;4.168;2023-11-21T09:05:12;72.00;;;32.47;;
19436;SDS011;9854;50.968;4.168;2023-11-21T09:07:41;73.22;;;32.28;;
19436;SDS011;9854;50.968;4.168;2023-11-21T09:10:09;71.90;;;32.03;;
19436;SDS011;9854;50.968;4.168;2023-11-21T09:12:36;70.35;;;32.78;;
19436;SDS011;9854;50.968;4.168;2023-11-21T09:15:07;64.90;;;30.80;;
19436;SDS011;9854;50.968;4.168;2023-11-21T09:17:36;61.03;;;29.77;;
19436;SDS011;9854;50.968;4.168;2023-11-21T09:20:02;61.63;;;30.50;;
19436;SDS011;9854;50.968;4.168;2023-11-21T09:22:31;75.85;;;32.03;;
19436;SDS011;9854;50.968;4.168;2023-11-21T09:24:57;66.18;;;30.25;;
19436;SDS011;9854;50.968;4.168;2023-11-21T09:27:25;59.42;;;28.95;;
19436;SDS011;9854;50.968;4.168;2023-11-21T09:29:51;54.10;;;27.80;;
19436;SDS011;9854;50.968;4.168;2023-11-21T09:32:20;52.50;;;28.05;;
19436;SDS011;9854;50.968;4.168;2023-11-21T09:34:49;53.45;;;27.58;;
19436;SDS011;9854;50.968;4.168;2023-11-21T09:37:15;46.47;;;25.73;;
19436;SDS011;9854;50.968;4.168;2023-11-21T09:39:41;49.13;;;26.48;;
19436;SDS011;9854;50.968;4.168;2023-11-21T09:42:15;35.67;;;23.45;;
19436;SDS011;9854;50.968;4.168;2023-11-21T09:47:26;29.75;;;19.95;;
19436;SDS011;9854;50.968;4.168;2023-11-21T09:49:53;30.33;;;20.08;;
19436;SDS011;9854;50.968;4.168;2023-11-21T09:52:26;31.67;;;20.83;;
19436;SDS011;9854;50.968;4.168;2023-11-21T09:54:52;32.60;;;19.73;;
19436;SDS011;9854;50.968;4.168;2023-11-21T09:57:20;25.17;;;19.10;;
19436;SDS011;9854;50.968;4.168;2023-11-21T09:59:54;25.77;;;18.98;;
19436;SDS011;9854;50.968;4.168;2023-11-21T10:02:25;21.90;;;17.67;;
19436;SDS011;9854;50.968;4.168;2023-11-21T10:04:53;21.83;;;17.35;;
19436;SDS011;9854;50.968;4.168;2023-11-21T10:07:19;20.13;;;16.08;;
19436;SDS011;9854;50.968;4.168;2023-11-21T10:09:46;21.23;;;17.25;;
19436;SDS011;9854;50.968;4.168;2023-11-21T10:12:15;26.25;;;18.17;;
19436;SDS011;9854;50.968;4.168;2023-11-21T10:14:42;19.42;;;17.02;;
19436;SDS011;9854;50.968;4.168;2023-11-21T10:17:17;21.63;;;17.58;;
19436;SDS011;9854;50.968;4.168;2023-11-21T10:19:46;22.63;;;18.67;;
19436;SDS011;9854;50.968;4.168;2023-11-21T10:22:13;18.98;;;16.80;;
19436;SDS011;9854;50.968;4.168;2023-11-21T10:24:42;23.83;;;18.20;;
19436;SDS011;9854;50.968;4.168;2023-11-21T10:27:08;26.27;;;17.90;;
19436;SDS011;9854;50.968;4.168;2023-11-21T10:29:34;22.70;;;18.30;;
19436;SDS011;9854;50.968;4.168;2023-11-21T10:32:01;26.40;;;17.75;;
19436;SDS011;9854;50.968;4.168;2023-11-21T10:34:30;21.70;;;16.58;;
19436;SDS011;9854;50.968;4.168;2023-11-21T10:37:10;21.52;;;17.30;;
19436;SDS011;9854;50.968;4.168;2023-11-21T10:39:40;17.98;;;16.02;;
19436;SDS011;9854;50.968;4.168;2023-11-21T10:42:09;24.98;;;16.63;;
19436;SDS011;9854;50.968;4.168;2023-11-21T10:44:36;21.10;;;16.65;;
19436;SDS011;9854;50.968;4.168;2023-11-21T10:47:02;20.33;;;16.10;;
19436;SDS011;9854;50.968;4.168;2023-11-21T10:49:33;21.95;;;16.20;;
19436;SDS011;9854;50.968;4.168;2023-11-21T10:51:59;19.33;;;15.88;;
19436;SDS011;9854;50.968;4.168;2023-11-21T10:54:25;17.70;;;15.30;;
19436;SDS011;9854;50.968;4.168;2023-11-21T10:56:57;15.55;;;14.05;;
19436;SDS011;9854;50.968;4.168;2023-11-21T10:59:24;15.73;;;13.88;;
19436;SDS011;9854;50.968;4.168;2023-11-21T11:01:54;16.38;;;13.20;;
19436;SDS011;9854;50.968;4.168;2023-11-21T11:04:22;16.80;;;12.32;;
19436;SDS011;9854;50.968;4.168;2023-11-21T11:06:57;17.23;;;9.95;;
19436;SDS011;9854;50.968;4.168;2023-11-21T11:09:28;9.52;;;7.38;;
19436;SDS011;9854;50.968;4.168;2023-11-21T11:12:02;10.63;;;7.28;;
19436;SDS011;9854;50.968;4.168;2023-11-21T11:14:31;9.25;;;6.13;;
19436;SDS011;9854;50.968;4.168;2023-11-21T11:17:00;9.77;;;5.32;;
19436;SDS011;9854;50.968;4.168;2023-11-21T11:19:27;7.80;;;4.93;;
19436;SDS011;9854;50.968;4.168;2023-11-21T11:38:08;7.78;;;3.95;;
19436;SDS011;9854;50.968;4.168;2023-11-21T11:40:44;7.82;;;3.95;;
19436;SDS011;9854;50.968;4.168;2023-11-21T11:43:11;10.70;;;4.35;;
19436;SDS011;9854;50.968;4.168;2023-11-21T11:45:40;8.98;;;4.22;;
19436;SDS011;9854;50.968;4.168;2023-11-21T11:48:10;8.00;;;4.30;;
19436;SDS011;9854;50.968;4.168;2023-11-21T11:50:41;10.02;;;3.85;;
19436;SDS011;9854;50.968;4.168;2023-11-21T11:53:32;6.38;;;3.42;;
19436;SDS011;9854;50.968;4.168;2023-11-21T11:58:56;9.15;;;3.53;;
19436;SDS011;9854;50.968;4.168;2023-11-21T12:01:24;8.55;;;3.55;;
19436;SDS011;9854;50.968;4.168;2023-11-21T12:06:59;12.98;;;3.95;;
19436;SDS011;9854;50.968;4.168;2023-11-21T12:09:32;10.13;;;3.60;;
19436;SDS011;9854;50.968;4.168;2023-11-21T12:11:58;9.73;;;3.60;;
19436;SDS011;9854;50.968;4.168;2023-11-21T12:14:23;8.90;;;4.15;;
19436;SDS011;9854;50.968;4.168;2023-11-21T12:16:52;5.82;;;3.55;;
19436;SDS011;9854;50.968;4.168;2023-11-21T12:19:19;9.90;;;4.57;;
19436;SDS011;9854;50.968;4.168;2023-11-21T12:21:45;9.23;;;4.20;;
19436;SDS011;9854;50.968;4.168;2023-11-21T12:24:13;12.23;;;4.10;;
19436;SDS011;9854;50.968;4.168;2023-11-21T12:26:41;7.85;;;3.97;;
19436;SDS011;9854;50.968;4.168;2023-11-21T12:29:07;16.27;;;5.03;;
19436;SDS011;9854;50.968;4.168;2023-11-21T12:31:34;7.57;;;4.45;;
19436;SDS011;9854;50.968;4.168;2023-11-21T12:34:04;8.23;;;4.47;;
19436;SDS011;9854;50.968;4.168;2023-11-21T12:36:36;12.02;;;4.90;;
19436;SDS011;9854;50.968;4.168;2023-11-21T12:39:05;6.85;;;4.03;;
19436;SDS011;9854;50.968;4.168;2023-11-21T12:41:31;8.43;;;3.75;;
19436;SDS011;9854;50.968;4.168;2023-11-21T12:43:56;9.02;;;4.13;;
19436;SDS011;9854;50.968;4.168;2023-11-21T12:46:22;9.38;;;4.10;;
19436;SDS011;9854;50.968;4.168;2023-11-21T12:48:54;5.03;;;3.78;;
19436;SDS011;9854;50.968;4.168;2023-11-21T12:51:22;4.93;;;3.60;;
19436;SDS011;9854;50.968;4.168;2023-11-21T12:53:49;7.05;;;4.30;;
19436;SDS011;9854;50.968;4.168;2023-11-21T12:56:16;7.75;;;4.13;;
19436;SDS011;9854;50.968;4.168;2023-11-21T12:58:43;7.72;;;4.50;;
19436;SDS011;9854;50.968;4.168;2023-11-21T13:01:12;6.40;;;3.90;;
19436;SDS011;9854;50.968;4.168;2023-11-21T13:03:42;8.85;;;4.10;;
19436;SDS011;9854;50.968;4.168;2023-11-21T13:06:10;6.32;;;4.10;;
19436;SDS011;9854;50.968;4.168;2023-11-21T13:08:37;8.30;;;5.22;;
19436;SDS011;9854;50.968;4.168;2023-11-21T13:11:04;6.18;;;5.63;;
19436;SDS011;9854;50.968;4.168;2023-11-21T13:13:31;10.38;;;5.80;;
19436;SDS011;9854;50.968;4.168;2023-11-21T13:15:58;6.05;;;4.95;;
19436;SDS011;9854;50.968;4.168;2023-11-21T13:18:33;6.63;;;5.90;;
19436;SDS011;9854;50.968;4.168;2023-11-21T13:21:02;6.88;;;6.25;;
19436;SDS011;9854;50.968;4.168;2023-11-21T13:23:37;7.10;;;5.90;;
19436;SDS011;9854;50.968;4.168;2023-11-21T13:26:06;6.30;;;5.68;;
19436;SDS011;9854;50.968;4.168;2023-11-21T13:28:33;7.15;;;6.45;;
19436;SDS011;9854;50.968;4.168;2023-11-21T13:31:00;7.07;;;6.38;;
19436;SDS011;9854;50.968;4.168;2023-11-21T13:33:35;7.50;;;6.90;;
19436;SDS011;9854;50.968;4.168;2023-11-21T13:36:06;6.85;;;6.25;;
19436;SDS011;9854;50.968;4.168;2023-11-21T13:38:34;7.30;;;6.70;;
19436;SDS011;9854;50.968;4.168;2023-11-21T13:41:01;8.27;;;7.47;;
19436;SDS011;9854;50.968;4.168;2023-11-21T13:43:32;7.75;;;7.15;;
19436;SDS011;9854;50.968;4.168;2023-11-21T13:45:58;9.23;;;6.88;;
19436;SDS011;9854;50.968;4.168;2023-11-21T13:48:33;7.90;;;7.05;;
19436;SDS011;9854;50.968;4.168;2023-11-21T13:51:18;7.45;;;6.85;;
19436;SDS011;9854;50.968;4.168;2023-11-21T13:53:54;7.45;;;6.72;;
19436;SDS011;9854;50.968;4.168;2023-11-21T13:56:20;8.57;;;7.68;;
19436;SDS011;9854;50.968;4.168;2023-11-21T13:58:49;7.20;;;6.60;;
19436;SDS011;9854;50.968;4.168;2023-11-21T14:01:19;7.75;;;6.15;;
19436;SDS011;9854;50.968;4.168;2023-11-21T14:03:49;6.35;;;5.75;;
19436;SDS011;9854;50.968;4.168;2023-11-21T14:06:22;6.63;;;6.03;;
19436;SDS011;9854;50.968;4.168;2023-11-21T14:08:56;6.80;;;5.97;;
19436;SDS011;9854;50.968;4.168;2023-11-21T14:11:22;6.53;;;5.63;;
19436;SDS011;9854;50.968;4.168;2023-11-21T14:13:48;6.97;;;5.60;;
19436;SDS011;9854;50.968;4.168;2023-11-21T14:16:14;9.75;;;6.07;;
19436;SDS011;9854;50.968;4.168;2023-11-21T14:18:43;6.68;;;5.80;;
19436;SDS011;9854;50.968;4.168;2023-11-21T14:21:23;4.68;;;4.20;;
19436;SDS011;9854;50.968;4.168;2023-11-21T14:23:52;4.43;;;4.03;;
19436;SDS011;9854;50.968;4.168;2023-11-21T14:26:20;5.03;;;4.43;;
19436;SDS011;9854;50.968;4.168;2023-11-21T14:28:49;7.70;;;4.45;;
19436;SDS011;9854;50.968;4.168;2023-11-21T14:31:19;3.95;;;3.65;;
19436;SDS011;9854;50.968;4.168;2023-11-21T14:33:45;6.22;;;3.42;;
19436;SDS011;9854;50.968;4.168;2023-11-21T14:36:11;3.17;;;2.97;;
19436;SDS011;9854;50.968;4.168;2023-11-21T14:38:37;3.35;;;3.05;;
19436;SDS011;9854;50.968;4.168;2023-11-21T14:41:04;3.72;;;3.42;;
19436;SDS011;9854;50.968;4.168;2023-11-21T14:43:33;4.00;;;3.60;;
19436;SDS011;9854;50.968;4.168;2023-11-21T14:46:00;4.07;;;3.67;;
19436;SDS011;9854;50.968;4.168;2023-11-21T14:48:33;7.32;;;4.60;;
19436;SDS011;9854;50.968;4.168;2023-11-21T14:51:09;4.60;;;4.20;;
19436;SDS011;9854;50.968;4.168;2023-11-21T14:53:37;5.25;;;4.68;;
19436;SDS011;9854;50.968;4.168;2023-11-21T14:56:22;4.97;;;4.57;;
19436;SDS011;9854;50.968;4.168;2023-11-21T14:58:57;4.88;;;4.47;;
19436;SDS011;9854;50.968;4.168;2023-11-21T15:01:25;5.43;;;4.72;;
19436;SDS011;9854;50.968;4.168;2023-11-21T15:04:09;6.45;;;5.35;;
19436;SDS011;9854;50.968;4.168;2023-11-21T15:06:48;5.95;;;5.45;;
19436;SDS011;9854;50.968;4.168;2023-11-21T15:09:13;5.80;;;5.20;;